Time;durP1;ratioP1;P1;durP2;ratioP2;P2;SDS_P1;SDS_P2;PMS_P1;PMS_P2;Temp;Humidity;BMP_temperature;BMP_pressure;BME280_temperature;BME280_humidity;BME280_pressure;Samples;Min_cycle;Max_cycle;Signal;HPM_P1;HPM_P2
2022/08/18 00:06:26;;;;;;;2.00;1.80;;;31.00;45.60;;;;;;20879580;28;20052;-72
2022/08/18 00:16:27;;;;;;;2.90;2.27;;;31.00;45.60;;;;;;20893697;28;20032;-74
2022/08/18 00:26:27;;;;;;;2.55;2.13;;;31.00;45.60;;;;;;20892324;28;20029;-72
2022/08/18 00:36:30;;;;;;;2.15;1.95;;;31.00;45.60;;;;;;20859978;28;20041;-71
2022/08/18 00:46:32;;;;;;;;;;;31.00;45.70;;;;;;20874790;28;20600;-71
2022/08/18 00:56:39;;;;;;;2.72;2.20;;;31.00;45.70;;;;;;20889425;28;20295;-72
2022/08/18 01:06:43;;;;;;;2.65;2.30;;;31.00;45.70;;;;;;20873344;28;20033;-74
2022/08/18 01:27:06;;;;;;;2.20;2.00;;;30.90;45.70;;;;;;20874314;28;20063;-71
2022/08/18 01:37:08;;;;;;;2.40;2.20;;;30.90;45.60;;;;;;20886963;28;20443;-71
2022/08/18 01:47:10;;;;;;;3.50;2.53;;;30.90;46.30;;;;;;20886810;28;20118;-71
2022/08/18 01:57:12;;;;;;;2.33;2.07;;;30.90;45.70;;;;;;20886540;28;20037;-72
2022/08/18 02:07:13;;;;;;;2.17;1.85;;;30.90;45.70;;;;;;20870985;28;20032;-72
2022/08/18 02:17:14;;;;;;;2.45;2.17;;;30.90;45.70;;;;;;20903461;28;20379;-72
2022/08/18 02:27:15;;;;;;;3.75;2.67;;;30.90;45.70;;;;;;20869229;28;20033;-73
2022/08/18 02:37:16;;;;;;;2.47;1.95;;;30.90;45.70;;;;;;20868411;28;20114;-72
2022/08/18 02:47:20;;;;;;;1.88;1.70;;;30.90;45.70;;;;;;20868218;28;20044;-71
2022/08/18 02:57:21;;;;;;;3.05;2.20;;;30.90;45.70;;;;;;20864735;28;20072;-72
2022/08/18 03:07:21;;;;;;;2.45;2.08;;;30.80;45.60;;;;;;20898738;28;20537;-72
2022/08/18 03:17:22;;;;;;;4.40;1.98;;;30.90;45.70;;;;;;20864980;28;20040;-71
2022/08/18 03:27:23;;;;;;;4.68;2.55;;;30.90;45.70;;;;;;20880539;28;20048;-71
2022/08/18 03:37:24;;;;;;;3.53;2.38;;;30.80;45.60;;;;;;20896596;28;20441;-71
2022/08/18 03:47:26;;;;;;;2.92;2.50;;;30.90;45.70;;;;;;20880389;28;20098;-73
2022/08/18 03:57:26;;;;;;;2.22;2.03;;;30.90;45.70;;;;;;20878187;28;20490;-71
2022/08/18 04:07:27;;;;;;;3.58;2.47;;;30.90;45.70;;;;;;20877025;28;20037;-74
2022/08/18 04:17:27;;;;;;;2.33;1.92;;;30.90;45.70;;;;;;20877676;28;20036;-72
2022/08/18 04:27:28;;;;;;;2.63;2.05;;;30.90;45.70;;;;;;20876526;28;20064;-71
2022/08/18 04:37:31;;;;;;;2.50;2.30;;;30.90;45.70;;;;;;20875149;28;20715;-72
2022/08/18 04:47:31;;;;;;;2.65;2.40;;;30.80;45.60;;;;;;20874826;28;20094;-71
2022/08/18 04:57:32;;;;;;;3.45;2.28;;;30.80;45.60;;;;;;20873724;28;20033;-71
2022/08/18 05:07:33;;;;;;;2.60;2.40;;;30.80;45.50;;;;;;20890422;28;20036;-73
2022/08/18 05:17:38;;;;;;;2.92;2.35;;;30.90;45.60;;;;;;20873275;28;20033;-72
2022/08/18 05:27:40;;;;;;;3.00;2.30;;;30.90;45.60;;;;;;20872687;28;20033;-70
2022/08/18 05:38:19;;;;;;;3.13;2.33;;;30.90;45.60;;;;;;20871762;28;20029;-71
2022/08/18 05:48:20;;;;;;;4.60;2.60;;;30.80;45.50;;;;;;20855271;28;20037;-72
2022/08/18 05:58:27;;;;;;;2.53;2.10;;;30.80;45.60;;;;;;20870547;28;20392;-71
2022/08/18 06:08:39;;;;;;;2.85;2.40;;;30.80;45.60;;;;;;20870718;28;20033;-71
2022/08/18 06:19:02;;;;;;;3.40;2.57;;;30.80;45.60;;;;;;20854445;28;20033;-71
2022/08/18 06:29:21;;;;;;;2.73;2.47;;;30.80;45.70;;;;;;20878230;28;20040;-71
2022/08/18 06:39:31;;;;;;;2.65;2.42;;;30.80;45.70;;;;;;20884263;28;20518;-70
2022/08/18 06:49:42;;;;;;;4.28;2.53;;;30.80;45.80;;;;;;20867975;28;20033;-72
2022/08/18 06:59:42;;;;;;;2.83;2.40;;;30.80;45.80;;;;;;20883341;28;20175;-71
2022/08/18 07:09:43;;;;;;;3.42;3.00;;;30.80;45.90;;;;;;20881788;28;20045;-71
2022/08/18 07:19:43;;;;;;;3.67;3.13;;;30.70;45.90;;;;;;20897769;28;20041;-71
2022/08/18 07:30:05;;;;;;;3.33;3.03;;;30.70;45.90;;;;;;20881312;28;20047;-74
2022/08/18 07:40:22;;;;;;;4.15;3.47;;;30.80;45.90;;;;;;20894443;28;20036;-71
2022/08/18 07:50:23;;;;;;;3.50;3.20;;;30.80;45.80;;;;;;20895016;28;20047;-72
2022/08/18 08:00:34;;;;;;;6.00;3.40;;;30.80;45.80;;;;;;20861375;28;20540;-71
2022/08/18 08:10:52;;;;;;;3.83;3.42;;;30.90;45.80;;;;;;20876604;28;20360;-71
2022/08/18 08:20:54;;;;;;;4.47;3.75;;;30.90;45.80;;;;;;20892453;28;20120;-71
2022/08/18 08:31:08;;;;;;;3.80;3.37;;;30.90;45.80;;;;;;20858948;28;20080;-71
2022/08/18 08:41:26;;;;;;;4.90;3.58;;;30.90;45.90;;;;;;20874341;28;20494;-72
2022/08/18 08:51:37;;;;;;;4.00;3.60;;;30.90;45.90;;;;;;20873962;28;20032;-71
2022/08/18 09:01:51;;;;;;;4.72;4.15;;;30.80;46.00;;;;;;20873603;28;20067;-72
2022/08/18 09:12:21;;;;;;;6.78;4.63;;;30.80;46.10;;;;;;20873684;28;20028;-71
2022/08/18 09:23:03;;;;;;;4.32;3.90;;;30.80;46.20;;;;;;20889604;28;20094;-72
2022/08/18 09:33:31;;;;;;;4.95;3.85;;;30.70;46.20;;;;;;20828841;28;20076;-72
2022/08/18 09:43:39;;;;;;;4.93;4.43;;;30.70;46.30;;;;;;20854856;28;20036;-71
2022/08/18 09:53:45;;;;;;;4.85;4.40;;;30.70;46.40;;;;;;20870403;28;20087;-71
2022/08/18 10:04:14;;;;;;;5.25;4.65;;;30.70;46.50;;;;;;20895089;28;20033;-70
2022/08/18 10:14:52;;;;;;;6.25;5.50;;;30.70;46.60;;;;;;20902301;28;20091;-73
2022/08/18 10:24:54;;;;;;;5.38;4.85;;;30.60;46.50;;;;;;20893880;28;20619;-71
2022/08/18 10:34:56;;;;;;;6.23;5.27;;;30.60;46.60;;;;;;20885232;28;20040;-71
2022/08/18 10:45:06;;;;;;;5.65;5.05;;;30.60;46.70;;;;;;20884066;28;20128;-71
2022/08/18 10:55:31;;;;;;;6.25;5.63;;;30.60;46.70;;;;;;20866615;28;20064;-72
2022/08/18 11:05:33;;;;;;;5.80;5.05;;;30.60;46.80;;;;;;20899232;28;20044;-73
2022/08/18 11:15:59;;;;;;;5.93;5.35;;;30.50;46.70;;;;;;20898027;28;20045;-70
2022/08/18 11:26:13;;;;;;;7.15;5.57;;;30.50;46.90;;;;;;20880534;28;20128;-70
2022/08/18 11:36:15;;;;;;;6.22;5.40;;;30.60;47.00;;;;;;20880981;28;20096;-70
2022/08/18 11:46:28;;;;;;;6.20;5.28;;;30.50;47.00;;;;;;20879251;28;20037;-72
2022/08/18 11:56:33;;;;;;;6.78;5.70;;;30.60;47.10;;;;;;20878694;28;20032;-72
2022/08/18 12:06:34;;;;;;;5.47;4.75;;;30.60;47.00;;;;;;20877628;28;20475;-71
2022/08/18 12:16:36;;;;;;;6.88;4.88;;;30.70;47.00;;;;;;20894202;28;20040;-72
2022/08/18 12:26:37;;;;;;;6.33;5.73;;;30.70;46.90;;;;;;20875879;28;20128;-71
2022/08/18 12:36:37;;;;;;;5.72;5.22;;;30.80;46.80;;;;;;20892715;28;20117;-71
2022/08/18 12:46:38;;;;;;;5.90;5.30;;;30.90;46.70;;;;;;20858894;28;20039;-70
2022/08/18 12:56:39;;;;;;;5.25;4.72;;;31.00;46.50;;;;;;20889728;28;20082;-71
2022/08/18 13:06:43;;;;;;;5.90;4.80;;;31.10;46.30;;;;;;20889528;28;20043;-73
2022/08/18 13:16:44;;;;;;;5.55;4.93;;;31.20;46.10;;;;;;20871470;28;20709;-71
2022/08/18 13:26:45;;;;;;;4.95;4.45;;;31.30;46.00;;;;;;20871759;28;20097;-70
2022/08/18 13:36:47;;;;;;;5.00;4.50;;;31.30;45.70;;;;;;20886498;28;20496;-70
2022/08/18 13:46:48;;;;;;;5.00;4.18;;;31.50;45.50;;;;;;20871260;28;20032;-71
2022/08/18 13:56:49;;;;;;;4.78;4.28;;;31.60;45.40;;;;;;20854208;28;20041;-72
2022/08/18 14:06:50;;;;;;;4.75;3.92;;;31.60;45.10;;;;;;20869771;28;20055;-72
2022/08/18 14:16:51;;;;;;;4.43;3.95;;;31.60;45.10;;;;;;20869124;28;20068;-74
2022/08/18 14:26:51;;;;;;;4.72;4.20;;;31.60;45.20;;;;;;20869764;28;20464;-71
2022/08/18 14:36:52;;;;;;;4.72;4.13;;;31.50;45.20;;;;;;20868956;28;20475;-71
2022/08/18 14:46:56;;;;;;;4.97;4.15;;;31.50;45.20;;;;;;20888408;28;20399;-71
2022/08/18 14:57:04;;;;;;;4.60;4.18;;;31.40;45.20;;;;;;20899968;28;20041;-71
2022/08/18 15:07:04;;;;;;;5.10;4.60;;;31.40;45.30;;;;;;20899749;28;20075;-74
2022/08/18 15:17:05;;;;;;;4.70;4.00;;;31.40;45.40;;;;;;20881362;28;20532;-72
2022/08/18 15:27:06;;;;;;;5.05;4.03;;;31.30;45.40;;;;;;20864491;28;20302;-71
2022/08/18 15:37:08;;;;;;;5.25;4.32;;;31.30;45.50;;;;;;20896424;28;20036;-75
2022/08/18 15:47:08;;;;;;;4.60;3.67;;;31.30;45.50;;;;;;20879244;28;20039;-71
2022/08/18 15:57:12;;;;;;;3.92;3.28;;;31.30;45.60;;;;;;20895781;28;20024;-71
2022/08/18 16:07:15;;;;;;;3.80;3.40;;;31.30;45.60;;;;;;20894508;28;20112;-71
2022/08/18 16:17:15;;;;;;;;;;;31.30;45.50;;;;;;20878683;28;20032;-72
2022/08/18 16:27:16;;;;;;;3.80;3.20;;;31.20;45.40;;;;;;20859401;28;19935;-72
2022/08/18 16:37:17;;;;;;;4.57;3.60;;;31.20;45.40;;;;;;20875483;28;20041;-73
2022/08/18 16:47:17;;;;;;;4.03;3.60;;;31.30;45.50;;;;;;20874614;28;20282;-74
2022/08/18 17:04:05;;;;;;;3.83;3.30;;;31.20;45.40;;;;;;20874353;28;20037;-72
2022/08/18 17:07:38;;;;;;;3.67;3.28;;;31.30;45.40;;;;;;20890415;28;20110;-71
2022/08/18 17:17:39;;;;;;;4.75;3.78;;;31.20;45.40;;;;;;20872156;28;20033;-71
2022/08/18 17:27:39;;;;;;;4.10;3.70;;;31.20;45.40;;;;;;20872395;28;20044;-71
2022/08/18 17:37:46;;;;;;;3.55;3.17;;;31.20;45.40;;;;;;20872457;28;20128;-71
2022/08/18 17:48:02;;;;;;;5.28;3.67;;;31.30;45.50;;;;;;20871660;28;20037;-71
2022/08/18 17:58:08;;;;;;;3.38;2.83;;;31.20;45.40;;;;;;20869422;28;20037;-70
2022/08/18 18:08:09;;;;;;;4.35;3.10;;;31.20;45.50;;;;;;20854458;28;20584;-70
2022/08/18 18:18:24;;;;;;;3.47;3.17;;;31.20;45.50;;;;;;20869974;28;20036;-72
2022/08/18 18:28:26;;;;;;;4.05;3.17;;;31.20;45.60;;;;;;20867289;28;20124;-72
2022/08/18 18:38:33;;;;;;;3.47;3.17;;;31.10;45.50;;;;;;20885121;28;20076;-72
2022/08/18 18:49:03;;;;;;;3.15;2.83;;;31.20;45.70;;;;;;20884751;28;20127;-71
2022/08/18 18:59:25;;;;;;;2.92;2.63;;;31.10;45.70;;;;;;20894010;28;20036;-71
2022/08/18 19:09:31;;;;;;;3.97;3.00;;;31.10;45.70;;;;;;20883652;28;20029;-71
2022/08/18 19:19:40;;;;;;;4.00;3.30;;;31.10;45.70;;;;;;20898143;28;20498;-71
2022/08/18 19:29:41;;;;;;;3.50;2.95;;;31.10;45.80;;;;;;20880968;28;20029;-71
2022/08/18 19:40:08;;;;;;;3.25;2.75;;;31.10;45.90;;;;;;20880497;28;20033;-71
2022/08/18 19:50:25;;;;;;;3.45;3.15;;;31.00;45.90;;;;;;20877931;28;20456;-72
2022/08/18 20:00:55;;;;;;;3.53;3.00;;;31.10;46.10;;;;;;20878351;28;20064;-71
2022/08/18 20:11:04;;;;;;;3.58;3.28;;;31.00;46.00;;;;;;20875934;28;20049;-72
2022/08/18 20:21:17;;;;;;;3.83;2.90;;;31.00;46.10;;;;;;20892981;28;20106;-74
2022/08/18 20:31:18;;;;;;;3.57;2.77;;;31.00;46.20;;;;;;20875727;28;20507;-71
2022/08/18 20:41:28;;;;;;;3.20;2.72;;;31.00;46.20;;;;;;20893166;28;20323;-71
2022/08/18 20:51:32;;;;;;;3.78;3.08;;;31.00;46.30;;;;;;20891664;28;20051;-71
2022/08/18 21:01:34;;;;;;;4.05;3.05;;;31.00;46.30;;;;;;20873075;28;20040;-72
2022/08/18 21:11:42;;;;;;;4.72;3.08;;;31.00;46.30;;;;;;20855996;28;20548;-73
2022/08/18 21:21:46;;;;;;;3.58;2.97;;;31.00;46.40;;;;;;20855793;28;20041;-72
2022/08/18 21:31:47;;;;;;;3.28;2.90;;;31.00;46.40;;;;;;20871430;28;20045;-72
2022/08/18 21:41:53;;;;;;;3.00;2.70;;;31.00;46.50;;;;;;20871268;28;20498;-72
2022/08/18 21:51:53;;;;;;;2.83;2.42;;;31.00;46.50;;;;;;20870543;28;20048;-72
2022/08/18 22:01:56;;;;;;;3.40;3.10;;;31.00;46.50;;;;;;20869093;28;20052;-72
2022/08/18 22:32:56;;;;;;;3.42;2.92;;;30.90;46.60;;;;;;20888493;28;20037;-73
2022/08/18 22:42:57;;;;;;;2.90;2.50;;;30.90;46.70;;;;;;20868240;28;20048;-71
2022/08/18 22:52:57;;;;;;;3.50;2.83;;;30.90;46.70;;;;;;20884980;28;20052;-72
2022/08/18 23:02:58;;;;;;;3.40;2.80;;;30.80;46.70;;;;;;20883996;28;20130;-72
2022/08/18 23:12:59;;;;;;;3.45;2.95;;;30.80;46.80;;;;;;20878489;28;20376;-72
2022/08/18 23:22:59;;;;;;;4.63;3.38;;;30.80;46.80;;;;;;20881287;28;20182;-73
2022/08/18 23:33:00;;;;;;;4.47;3.03;;;30.80;46.90;;;;;;20896990;28;20120;-74
2022/08/18 23:43:00;;;;;;;4.03;2.67;;;30.80;46.90;;;;;;20879551;28;20033;-72
2022/08/18 23:53:02;;;;;;;4.47;3.07;;;30.80;46.90;;;;;;20879947;28;20040;-71
